createdAt,value
2018-12-05T00:00:14.811Z,28.1
2018-12-05T00:01:04.586Z,28.1
2018-12-05T00:01:54.976Z,28.1
2018-12-05T00:02:44.699Z,28.1
2018-12-05T00:03:34.730Z,28.1
2018-12-05T00:04:24.543Z,28.1
2018-12-05T00:05:14.897Z,28.1
2018-12-05T00:06:04.655Z,28.1
2018-12-05T00:06:54.984Z,28.1
2018-12-05T00:25:07.011Z,27.9
2018-12-05T00:25:56.829Z,28
2018-12-05T00:26:46.877Z,27.9
2018-12-05T00:27:36.929Z,27.9
2018-12-05T00:28:26.416Z,27.9
2018-12-05T00:29:15.949Z,27.9
2018-12-05T00:30:07.099Z,27.9
2018-12-05T00:30:56.615Z,27.9
2018-12-05T00:31:46.136Z,27.9
2018-12-05T00:32:36.783Z,27.9
2018-12-05T00:33:27.600Z,27.9
2018-12-05T00:34:17.323Z,27.9
2018-12-05T00:35:06.892Z,27.9
2018-12-05T00:35:57.423Z,27.9
2018-12-05T00:36:47.468Z,27.9
2018-12-05T00:37:37.593Z,27.9
2018-12-05T00:38:28.185Z,27.9
2018-12-05T00:39:17.928Z,27.9
2018-12-05T00:40:08.889Z,27.9
2018-12-05T00:40:57.220Z,27.9
2018-12-05T00:41:48.368Z,27.9
2018-12-05T00:42:37.710Z,27.9
2018-12-05T00:43:28.523Z,27.9
2018-12-05T00:44:18.237Z,27.9
2018-12-05T00:45:08.332Z,27.9
2018-12-05T00:45:57.829Z,27.9
2018-12-05T00:46:48.428Z,27.9
2018-12-05T00:48:29.074Z,27.9
2018-12-05T00:50:08.710Z,27.9
2018-12-05T00:50:58.764Z,27.9
2018-12-05T00:59:19.302Z,27.8
2018-12-05T01:03:28.769Z,27.8
2018-12-05T01:04:19.708Z,27.8
2018-12-05T01:05:59.469Z,27.8
2018-12-05T01:06:49.541Z,27.8
2018-12-05T01:07:39.303Z,27.8
2018-12-05T01:08:29.946Z,27.8
2018-12-05T01:09:19.710Z,27.8
2018-12-05T01:10:08.983Z,27.8
2018-12-05T01:11:00.456Z,27.8
2018-12-05T01:11:50.536Z,27.8
2018-12-05T01:12:39.946Z,27.7
2018-12-05T01:13:30.256Z,27.8
2018-12-05T01:14:20.328Z,27.7
2018-12-05T01:15:11.018Z,27.7
2018-12-05T01:16:00.131Z,27.7
2018-12-05T01:16:50.538Z,27.7
2018-12-05T01:17:39.780Z,27.7
2018-12-05T01:18:30.635Z,27.7
2018-12-05T01:19:21.172Z,27.7
2018-12-05T01:20:09.619Z,27.7
2018-12-05T01:21:01.105Z,27.7
2018-12-05T01:21:50.845Z,27.7
2018-12-05T01:22:41.164Z,27.7
2018-12-05T01:23:31.260Z,27.7
2018-12-05T01:24:21.073Z,27.7
2018-12-05T01:25:10.527Z,27.7
2018-12-05T01:26:00.287Z,27.7
2018-12-05T01:26:50.422Z,27.7
2018-12-05T01:27:41.522Z,27.7
2018-12-05T01:28:30.755Z,27.6
2018-12-05T01:29:20.784Z,27.6
2018-12-05T01:30:11.654Z,27.6
2018-12-05T01:31:01.161Z,27.7
2018-12-05T01:31:50.689Z,27.6
2018-12-05T01:32:41.309Z,27.6
2018-12-05T01:33:31.382Z,27.6
2018-12-05T01:34:22.032Z,27.6
2018-12-05T01:35:12.011Z,27.6
2018-12-05T01:36:02.042Z,27.6
2018-12-05T01:36:51.106Z,27.6
2018-12-05T01:37:41.084Z,27.6
2018-12-05T01:38:31.434Z,27.6
2018-12-05T01:39:21.797Z,27.6
2018-12-05T01:40:12.089Z,27.6
2018-12-05T01:41:01.926Z,27.6
2018-12-05T01:41:51.087Z,27.6
2018-12-05T01:42:41.724Z,27.6
2018-12-05T01:43:31.803Z,27.6
2018-12-05T01:44:21.568Z,27.6
2018-12-05T01:45:12.703Z,27.6
2018-12-05T01:46:02.497Z,27.6
2018-12-05T01:46:52.268Z,27.6
2018-12-05T01:47:42.411Z,27.6
2018-12-05T01:48:32.401Z,27.6
2018-12-05T01:49:22.741Z,27.6
2018-12-05T01:50:12.218Z,27.6
2018-12-05T01:51:02.830Z,27.6
2018-12-05T01:51:52.134Z,27.6
2018-12-05T01:52:43.478Z,27.6
2018-12-05T01:53:33.286Z,27.6
2018-12-05T01:54:22.813Z,27.6
2018-12-05T01:55:12.291Z,27.6
2018-12-05T01:56:03.146Z,27.5
2018-12-05T01:56:53.476Z,27.5
2018-12-05T01:57:43.688Z,27.5
2018-12-05T01:58:32.889Z,27.5
2018-12-05T01:59:23.140Z,27.5
2018-12-05T02:00:13.743Z,27.5
2018-12-05T02:01:03.023Z,27.6
2018-12-05T02:01:53.901Z,27.6
2018-12-05T02:02:43.351Z,27.7
2018-12-05T02:03:33.974Z,27.8
2018-12-05T02:05:13.254Z,27.9
2018-12-05T02:06:03.311Z,28.1
2018-12-05T02:06:54.470Z,28.1
2018-12-05T02:07:44.258Z,28.2
2018-12-05T02:08:33.218Z,28.3
2018-12-05T02:09:24.100Z,28.4
2018-12-05T02:10:13.870Z,28.4
2018-12-05T02:11:04.728Z,28.5
2018-12-05T02:11:54.035Z,28.6
2018-12-05T02:12:43.818Z,28.7
2018-12-05T02:13:34.106Z,28.8
2018-12-05T02:14:24.277Z,28.8
2018-12-05T02:15:14.217Z,28.9
2018-12-05T02:16:04.145Z,28.9
2018-12-05T02:16:54.893Z,29
2018-12-05T02:17:44.128Z,29.1
2018-12-05T02:18:34.442Z,29.1
2018-12-05T02:19:24.785Z,29.2
2018-12-05T02:20:14.900Z,29.3
2018-12-05T02:21:05.575Z,29.3
2018-12-05T02:21:54.965Z,29.4
2018-12-05T02:22:43.854Z,29.4
2018-12-05T02:23:35.062Z,29.5
2018-12-05T02:24:24.044Z,29.6
2018-12-05T02:25:15.441Z,29.6
2018-12-05T02:26:05.047Z,29.7
2018-12-05T02:26:55.554Z,29.8
2018-12-05T02:27:44.927Z,29.8
2018-12-05T02:28:35.137Z,29.9
2018-12-05T02:29:25.504Z,29.9
2018-12-05T02:30:15.959Z,30.1
2018-12-05T02:31:05.612Z,30.1
2018-12-05T02:31:55.631Z,30.2
2018-12-05T02:32:46.014Z,30.3
2018-12-05T02:33:36.046Z,30.3
2018-12-05T02:34:25.901Z,30.4
2018-12-05T02:35:15.041Z,30.4
2018-12-05T02:36:06.241Z,30.6
2018-12-05T02:36:55.783Z,30.6
2018-12-05T02:37:45.783Z,30.7
2018-12-05T02:38:35.579Z,30.8
2018-12-05T02:39:26.006Z,30.8
2018-12-05T02:40:16.486Z,30.9
2018-12-05T02:41:06.268Z,30.9
2018-12-05T02:41:56.165Z,31
2018-12-05T02:42:45.605Z,31.1
2018-12-05T02:43:36.180Z,31.2
2018-12-05T02:44:26.843Z,31.3
2018-12-05T02:45:16.358Z,31.3
2018-12-05T02:46:06.925Z,31.4
2018-12-05T02:46:56.085Z,31.5
2018-12-05T02:47:47.106Z,31.6
2018-12-05T02:48:36.232Z,31.6
2018-12-05T02:49:25.755Z,31.7
2018-12-05T02:50:16.915Z,31.8
2018-12-05T02:51:06.417Z,31.9
2018-12-05T02:51:56.521Z,31.9
2018-12-05T02:52:46.795Z,32.1
2018-12-05T02:53:36.953Z,32.1
2018-12-05T02:54:27.066Z,32.2
2018-12-05T02:55:17.287Z,32.3
2018-12-05T02:56:07.577Z,32.4
2018-12-05T02:56:57.211Z,32.4
2018-12-05T02:57:47.338Z,32.5
2018-12-05T02:58:37.683Z,32.6
2018-12-05T02:59:27.358Z,32.7
2018-12-05T03:00:19.038Z,32.7
2018-12-05T03:01:07.213Z,32.8
2018-12-05T03:01:57.444Z,32.9
2018-12-05T03:02:47.529Z,32.9
2018-12-05T03:03:36.986Z,33
2018-12-05T03:04:27.630Z,33.1
2018-12-05T03:05:17.802Z,33.2
2018-12-05T03:06:07.534Z,33.3
2018-12-05T03:06:57.774Z,33.4
2018-12-05T03:07:47.577Z,33.4
2018-12-05T03:08:37.908Z,33.6
2018-12-05T03:09:28.800Z,33.6
2018-12-05T03:10:18.047Z,33.8
2018-12-05T03:11:08.072Z,33.8
2018-12-05T03:11:58.391Z,33.9
2018-12-05T03:12:48.453Z,34
2018-12-05T03:13:38.255Z,34.1
2018-12-05T03:14:28.563Z,34.1
2018-12-05T03:15:18.343Z,34.2
2018-12-05T03:16:07.884Z,34.3
2018-12-05T03:16:58.735Z,34.3
2018-12-05T03:17:49.055Z,34.4
2018-12-05T03:18:38.620Z,34.4
2018-12-05T03:19:28.950Z,34.5
2018-12-05T03:20:18.701Z,34.5
2018-12-05T03:21:09.355Z,34.6
2018-12-05T03:21:59.386Z,34.6
2018-12-05T03:22:49.422Z,34.6
2018-12-05T03:23:39.219Z,34.7
2018-12-05T03:24:29.297Z,34.8
2018-12-05T03:25:19.333Z,34.8
2018-12-05T03:26:09.427Z,34.8
2018-12-05T03:26:59.172Z,34.8
2018-12-05T03:27:49.517Z,34.9
2018-12-05T03:28:39.817Z,34.9
2018-12-05T03:29:29.589Z,34.9
2018-12-05T03:30:19.968Z,35
2018-12-05T03:31:09.555Z,35
2018-12-05T03:31:59.640Z,35
2018-12-05T03:32:50.276Z,35.1
2018-12-05T03:33:40.083Z,35.1
2018-12-05T03:34:29.941Z,35.1
2018-12-05T03:35:21.416Z,35.1
2018-12-05T03:36:09.493Z,35.1
2018-12-05T03:37:00.192Z,35.1
2018-12-05T03:37:49.612Z,35.2
2018-12-05T03:38:40.312Z,35.2
2018-12-05T03:39:30.294Z,35.2
2018-12-05T03:40:20.102Z,35.2
2018-12-05T03:41:10.241Z,35.3
2018-12-05T03:42:00.512Z,35.3
2018-12-05T03:42:50.504Z,35.3
2018-12-05T03:43:41.116Z,35.3
2018-12-05T03:44:30.664Z,35.3
2018-12-05T03:45:20.127Z,35.3
2018-12-05T03:46:10.486Z,35.3
2018-12-05T03:47:00.552Z,35.4
2018-12-05T03:47:50.871Z,35.4
2018-12-05T03:48:40.403Z,35.4
2018-12-05T03:49:30.957Z,35.4
2018-12-05T03:50:19.988Z,35.4
2018-12-05T03:51:11.136Z,35.4
2018-12-05T03:52:00.870Z,35.4
2018-12-05T03:52:51.476Z,35.4
2018-12-05T03:53:41.559Z,35.4
2018-12-05T03:54:31.366Z,35.4
2018-12-05T03:55:23.191Z,35.5
2018-12-05T03:56:11.493Z,35.5
2018-12-05T03:57:01.576Z,35.5
2018-12-05T03:57:51.018Z,35.5
2018-12-05T03:58:41.108Z,35.5
2018-12-05T03:59:31.118Z,35.5
2018-12-05T04:00:21.455Z,35.5
2018-12-05T04:01:12.038Z,35.5
2018-12-05T04:02:02.213Z,35.5
2018-12-05T04:02:52.167Z,35.5
2018-12-05T04:03:41.112Z,35.5
2018-12-05T04:04:32.270Z,35.5
2018-12-05T04:05:21.813Z,35.5
2018-12-05T04:06:12.132Z,35.5
2018-12-05T04:07:03.428Z,35.5
2018-12-05T04:07:51.958Z,35.6
2018-12-05T04:08:42.017Z,35.6
2018-12-05T04:09:33.618Z,35.6
2018-12-05T04:10:22.160Z,35.6
2018-12-05T04:11:13.695Z,35.6
2018-12-05T04:12:02.480Z,35.6
2018-12-05T04:12:53.797Z,35.6
2018-12-05T04:13:41.797Z,35.6
2018-12-05T04:14:32.305Z,35.6
2018-12-05T04:15:22.513Z,35.6
2018-12-05T04:16:12.856Z,35.6
2018-12-05T04:17:02.942Z,35.6
2018-12-05T04:17:52.828Z,35.6
2018-12-05T04:18:43.304Z,35.6
2018-12-05T04:19:33.059Z,35.6
2018-12-05T04:20:23.080Z,35.6
2018-12-05T04:21:12.856Z,35.6
2018-12-05T04:22:03.468Z,35.6
2018-12-05T04:22:52.971Z,35.6
2018-12-05T04:23:43.709Z,35.6
2018-12-05T04:24:33.432Z,35.6
2018-12-05T04:25:22.971Z,35.6
2018-12-05T04:26:13.488Z,35.6
2018-12-05T04:27:03.019Z,35.6
2018-12-05T04:27:53.591Z,35.6
2018-12-05T04:28:43.384Z,35.6
2018-12-05T04:29:33.426Z,35.6
2018-12-05T04:30:24.569Z,35.6
2018-12-05T04:31:14.104Z,35.6
2018-12-05T04:32:03.918Z,35.6
2018-12-05T04:32:53.978Z,35.6
2018-12-05T04:33:43.719Z,35.6
2018-12-05T04:34:33.791Z,35.6
2018-12-05T04:35:23.557Z,35.6
2018-12-05T04:36:14.462Z,35.7
2018-12-05T04:37:04.328Z,35.6
2018-12-05T04:54:19.458Z,35.6
2018-12-05T04:55:07.386Z,35.6
2018-12-05T04:55:57.420Z,35.6
2018-12-05T04:56:47.543Z,35.6
2018-12-05T04:57:37.821Z,35.6
2018-12-05T04:58:28.185Z,35.6
2018-12-05T04:59:21.040Z,35.6
2018-12-05T05:00:07.742Z,35.6
2018-12-05T05:00:57.485Z,35.6
2018-12-05T05:01:48.110Z,35.6
2018-12-05T05:02:37.582Z,35.6
2018-12-05T05:03:27.633Z,35.6
2018-12-05T05:04:18.542Z,35.6
2018-12-05T05:05:08.045Z,35.6
2018-12-05T05:05:58.219Z,35.6
2018-12-05T05:06:47.977Z,35.6
2018-12-05T05:07:38.242Z,35.6
2018-12-05T05:08:28.279Z,35.6
2018-12-05T05:09:18.890Z,35.6
2018-12-05T05:10:07.560Z,35.6
2018-12-05T05:10:58.707Z,35.6
2018-12-05T05:11:48.561Z,35.6
2018-12-05T05:12:38.537Z,35.6
2018-12-05T05:13:28.992Z,35.6
2018-12-05T05:14:18.115Z,35.6
2018-12-05T05:15:08.457Z,35.6
2018-12-05T05:15:58.779Z,35.6
2018-12-05T05:16:48.599Z,35.5
2018-12-05T05:17:38.894Z,35.5
2018-12-05T05:18:29.221Z,35.5
2018-12-05T05:19:19.447Z,35.5
2018-12-05T05:20:09.346Z,35.5
2018-12-05T05:20:59.144Z,35.5
2018-12-05T05:21:49.174Z,35.5
2018-12-05T05:22:39.648Z,35.6
2018-12-05T05:23:29.329Z,35.5
2018-12-05T05:24:19.351Z,35.5
2018-12-05T05:25:10.008Z,35.5
2018-12-05T05:25:59.496Z,35.5
2018-12-05T05:26:49.508Z,35.5
2018-12-05T05:27:47.163Z,35.5
2018-12-05T05:28:29.611Z,35.5
2018-12-05T05:29:19.950Z,35.5
2018-12-05T05:30:10.359Z,35.5
2018-12-05T05:30:59.773Z,35.5
2018-12-05T05:31:50.458Z,35.4
2018-12-05T05:32:39.090Z,35.4
2018-12-05T05:33:30.092Z,35.4
2018-12-05T05:34:19.753Z,35.4
2018-12-05T05:35:10.620Z,35.4
2018-12-05T05:35:59.867Z,35.4
2018-12-05T05:36:50.209Z,35.4
2018-12-05T05:37:40.548Z,35.4
2018-12-05T05:38:29.809Z,35.4
2018-12-05T05:39:20.657Z,35.4
2018-12-05T05:40:11.385Z,35.4
2018-12-05T05:41:01.290Z,35.4
2018-12-05T05:41:50.340Z,35.4
2018-12-05T05:42:40.580Z,35.4
2018-12-05T05:43:30.642Z,35.3
2018-12-05T05:44:20.989Z,35.4
2018-12-05T05:45:11.289Z,35.3
2018-12-05T05:46:01.617Z,35.4
2018-12-05T05:46:51.466Z,35.3
2018-12-05T05:47:41.480Z,35.3
2018-12-05T05:48:31.234Z,35.3
2018-12-05T05:49:21.024Z,35.3
2018-12-05T05:50:11.377Z,35.3
2018-12-05T05:51:01.174Z,35.3
2018-12-05T05:51:51.199Z,35.3
2018-12-05T05:52:40.994Z,35.3
2018-12-05T05:53:31.042Z,35.3
2018-12-05T05:54:21.936Z,35.3
2018-12-05T05:55:11.722Z,35.3
2018-12-05T05:56:01.494Z,35.3
2018-12-05T05:56:51.604Z,35.3
2018-12-05T05:57:41.907Z,35.3
2018-12-05T05:58:31.391Z,35.3
2018-12-05T05:59:21.791Z,35.3
2018-12-05T06:00:12.062Z,35.3
2018-12-05T06:01:01.641Z,35.3
2018-12-05T06:01:52.451Z,35.3
2018-12-05T06:02:41.683Z,35.3
2018-12-05T06:03:32.059Z,35.2
2018-12-05T06:04:22.336Z,35.2
2018-12-05T06:05:12.119Z,35.1
2018-12-05T06:06:02.406Z,35.1
2018-12-05T06:06:51.931Z,35.1
2018-12-05T06:07:42.288Z,35.1
2018-12-05T06:08:32.059Z,35.1
2018-12-05T06:09:22.676Z,35.1
2018-12-05T06:10:12.212Z,35.1
2018-12-05T06:11:02.528Z,35.1
2018-12-05T06:11:53.196Z,35
2018-12-05T06:12:43.198Z,35
2018-12-05T06:13:32.673Z,35.1
2018-12-05T06:14:23.096Z,35
2018-12-05T06:15:13.338Z,35
2018-12-05T06:16:03.414Z,35.1
2018-12-05T06:16:52.628Z,35
2018-12-05T06:17:42.966Z,35.1
2018-12-05T06:18:33.033Z,35
2018-12-05T06:19:23.704Z,35
2018-12-05T06:20:13.131Z,35
2018-12-05T06:21:03.238Z,35
2018-12-05T06:21:53.295Z,35
2018-12-05T06:22:43.295Z,35
2018-12-05T06:23:33.673Z,35
2018-12-05T06:24:23.476Z,35
2018-12-05T06:25:13.513Z,34.9
2018-12-05T06:26:03.573Z,34.9
2018-12-05T06:26:53.650Z,34.9
2018-12-05T06:27:43.689Z,34.7
2018-12-05T06:28:34.023Z,34.4
2018-12-05T06:29:24.297Z,34.1
2018-12-05T06:30:13.530Z,33.8
2018-12-05T06:31:03.835Z,33.4
2018-12-05T06:31:53.900Z,33
2018-12-05T06:32:43.684Z,32.6
2018-12-05T06:33:36.521Z,32.3
2018-12-05T06:34:24.652Z,31.8
2018-12-05T06:35:14.699Z,31.4
2018-12-05T06:36:04.202Z,31
2018-12-05T06:36:54.305Z,30.6
2018-12-05T06:37:45.119Z,30.3
2018-12-05T06:38:34.396Z,29.9
2018-12-05T06:39:24.425Z,29.5
2018-12-05T06:40:13.926Z,29.2
2018-12-05T06:41:04.827Z,28.9
2018-12-05T06:41:54.909Z,28.6
2018-12-05T06:42:45.204Z,28.3
2018-12-05T06:43:35.274Z,28
2018-12-05T06:44:25.042Z,27.8
2018-12-05T06:45:15.186Z,27.5
2018-12-05T06:46:04.324Z,27.3
2018-12-05T06:46:55.206Z,27.1
2018-12-05T06:47:45.531Z,26.9
2018-12-05T06:48:35.637Z,26.7
2018-12-05T06:49:25.116Z,26.5
2018-12-05T06:50:15.747Z,26.3
2018-12-05T06:51:05.261Z,26.1
2018-12-05T06:51:54.518Z,25.9
2018-12-05T06:52:45.058Z,25.8
2018-12-05T06:53:37.069Z,25.7
2018-12-05T06:54:25.738Z,25.5
2018-12-05T06:55:15.853Z,25.4
2018-12-05T06:56:06.141Z,25.3
2018-12-05T06:56:55.613Z,25.1
2018-12-05T06:57:45.953Z,25
2018-12-05T06:58:35.746Z,24.9
2018-12-05T06:59:26.350Z,24.8
2018-12-05T07:00:15.621Z,24.7
2018-12-05T07:01:05.923Z,24.6
2018-12-05T07:01:56.360Z,24.5
2018-12-05T07:02:46.010Z,24.3
2018-12-05T07:03:36.038Z,24.3
2018-12-05T07:04:26.136Z,24.2
2018-12-05T07:05:16.467Z,24.1
2018-12-05T07:06:06.243Z,24
2018-12-05T07:06:56.840Z,23.9
2018-12-05T07:07:46.660Z,23.9
2018-12-05T07:08:36.699Z,23.8
2018-12-05T07:09:25.718Z,23.7
2018-12-05T07:10:16.812Z,23.6
2018-12-05T07:11:06.883Z,23.6
2018-12-05T07:11:56.624Z,23.5
2018-12-05T07:12:46.955Z,23.4
2018-12-05T07:13:37.582Z,23.4
2018-12-05T07:14:26.862Z,23.3
2018-12-05T07:15:16.882Z,23.3
2018-12-05T07:16:06.962Z,23.2
2018-12-05T07:16:57.012Z,23.2
2018-12-05T07:17:46.824Z,23.1
2018-12-05T07:18:38.226Z,23
2018-12-05T07:19:27.994Z,23
2018-12-05T07:20:17.612Z,22.9
2018-12-05T07:21:07.561Z,22.9
2018-12-05T07:21:57.346Z,22.9
2018-12-05T07:22:47.387Z,22.8
2018-12-05T07:23:38.017Z,22.8
2018-12-05T07:24:27.542Z,22.7
2018-12-05T07:25:17.614Z,22.6
2018-12-05T07:26:07.491Z,22.6
2018-12-05T07:26:57.480Z,22.6
2018-12-05T07:27:47.968Z,22.5
2018-12-05T07:28:38.104Z,22.5
2018-12-05T07:29:28.135Z,22.4
2018-12-05T07:30:17.354Z,22.4
2018-12-05T07:31:07.709Z,22.3
2018-12-05T07:31:58.031Z,22.3
2018-12-05T07:32:48.520Z,22.3
2018-12-05T07:33:38.703Z,22.3
2018-12-05T07:34:28.526Z,22.2
2018-12-05T07:35:18.494Z,22.2
2018-12-05T07:36:07.750Z,22.1
2018-12-05T07:36:57.549Z,22.1
2018-12-05T07:37:48.160Z,22.1
2018-12-05T07:38:38.529Z,22
2018-12-05T07:39:28.850Z,22
2018-12-05T07:40:18.898Z,21.9
2018-12-05T07:41:08.917Z,21.9
2018-12-05T07:41:59.071Z,21.9
2018-12-05T07:42:48.849Z,21.9
2018-12-05T07:43:38.830Z,21.9
2018-12-05T07:44:29.430Z,21.8
2018-12-05T07:45:19.215Z,21.8
2018-12-05T07:46:09.270Z,21.8
2018-12-05T07:46:59.335Z,21.8
2018-12-05T07:47:49.465Z,21.7
2018-12-05T07:48:39.712Z,21.7
2018-12-05T07:49:29.850Z,21.6
2018-12-05T07:50:21.620Z,21.6
2018-12-05T07:51:09.343Z,21.6
2018-12-05T07:51:59.937Z,21.6
2018-12-05T07:52:49.725Z,21.6
2018-12-05T07:53:39.282Z,21.6
2018-12-05T07:54:29.587Z,21.5
2018-12-05T07:55:19.892Z,21.4
2018-12-05T07:56:10.232Z,21.4
2018-12-05T07:56:59.727Z,21.4
2018-12-05T07:57:49.779Z,21.4
2018-12-05T07:58:39.857Z,21.4
2018-12-05T07:59:30.466Z,21.4
2018-12-05T08:00:20.212Z,21.3
2018-12-05T08:01:09.487Z,21.3
2018-12-05T08:02:00.074Z,22.8
2018-12-05T08:02:50.135Z,26.9
2018-12-05T08:03:40.429Z,28.4
2018-12-05T08:04:30.526Z,31.8
2018-12-05T08:05:20.614Z,34.1
2018-12-05T08:06:11.009Z,35.3
2018-12-05T08:07:00.981Z,34.9
2018-12-05T08:07:50.748Z,32.5
2018-12-05T08:08:41.181Z,30.4
2018-12-05T08:09:30.923Z,29.5
2018-12-05T08:10:21.078Z,29.1
2018-12-05T08:11:10.936Z,28.9
2018-12-05T08:12:01.403Z,28.8
2018-12-05T08:12:50.821Z,27.9
2018-12-05T08:13:41.166Z,30.2
2018-12-05T08:14:30.670Z,31.6
2018-12-05T08:15:21.278Z,33.4
2018-12-05T08:16:11.035Z,35.4
2018-12-05T08:17:00.641Z,36.6
2018-12-05T08:17:51.736Z,37.1
2018-12-05T08:18:40.968Z,37.3
2018-12-05T08:19:31.867Z,37.3
2018-12-05T08:20:21.628Z,37.3
2018-12-05T08:21:11.470Z,37.4
2018-12-05T08:22:01.505Z,37.7
2018-12-05T08:22:51.802Z,38
2018-12-05T08:23:41.937Z,38.4
2018-12-05T08:24:31.889Z,38.6
2018-12-05T08:25:22.232Z,38.9
2018-12-05T08:26:12.084Z,39.1
2018-12-05T08:27:02.087Z,39.3
2018-12-05T08:27:51.950Z,39.4
2018-12-05T08:28:42.477Z,39.6
2018-12-05T08:29:32.257Z,39.8
2018-12-05T08:30:22.320Z,39.9
2018-12-05T08:31:12.456Z,39.9
2018-12-05T08:32:02.161Z,39.8
2018-12-05T08:32:51.954Z,39.7
2018-12-05T08:33:41.727Z,39.5
2018-12-05T08:34:32.881Z,39.3
2018-12-05T08:35:22.986Z,39.2
2018-12-05T08:36:12.476Z,39.1
2018-12-05T08:37:03.066Z,39.1
2018-12-05T08:37:52.008Z,39
2018-12-05T08:38:42.903Z,39.1
2018-12-05T08:39:33.205Z,39.1
2018-12-05T08:40:23.005Z,39.1
2018-12-05T08:41:13.091Z,39
2018-12-05T08:42:02.565Z,38.9
2018-12-05T08:42:52.986Z,38.8
2018-12-05T08:43:45.134Z,38.6
2018-12-05T08:44:33.579Z,38.3
2018-12-05T08:45:22.531Z,38
2018-12-05T08:46:13.963Z,37.7
2018-12-05T08:47:02.912Z,37.2
2018-12-05T08:47:53.812Z,36.8
2018-12-05T08:48:43.600Z,36.3
2018-12-05T08:49:33.393Z,35.8
2018-12-05T08:50:23.472Z,35.4
2018-12-05T08:51:13.462Z,36.1
2018-12-05T08:52:03.274Z,37.3
2018-12-05T08:52:54.167Z,38
2018-12-05T09:08:41.597Z,43.8
2018-12-05T09:09:31.726Z,43.9
2018-12-05T09:10:21.464Z,44.1
2018-12-05T09:11:11.531Z,44.3
2018-12-05T09:12:01.893Z,44.4
2018-12-05T09:12:51.909Z,44.4
2018-12-05T09:13:41.811Z,44.4
2018-12-05T09:14:34.542Z,44.4
2018-12-05T09:15:22.378Z,44.4
2018-12-05T09:16:12.156Z,44.4
2018-12-05T09:17:02.197Z,44.4
2018-12-05T09:17:52.218Z,44.3
2018-12-05T09:18:42.063Z,44.1
2018-12-05T09:19:31.815Z,43.9
2018-12-05T09:20:21.870Z,43.8
2018-12-05T09:21:13.366Z,43.6
2018-12-05T09:22:02.266Z,43.4
2018-12-05T09:22:53.136Z,43.3
2018-12-05T09:23:42.361Z,43.2
2018-12-05T09:24:32.441Z,43.1
2018-12-05T09:25:22.585Z,43
2018-12-05T09:26:13.103Z,42.8
2018-12-05T09:27:02.063Z,42.7
2018-12-05T09:27:53.243Z,42.6
2018-12-05T09:28:42.431Z,42.3
2018-12-05T09:29:32.302Z,41.9
2018-12-05T09:30:22.559Z,41.2
2018-12-05T09:31:12.695Z,40.3
2018-12-05T09:32:02.945Z,39.5
2018-12-05T09:32:53.354Z,38.9
2018-12-05T09:33:43.602Z,38.4
2018-12-05T09:34:33.105Z,38.1
2018-12-05T09:35:24.067Z,37.8
2018-12-05T09:36:13.252Z,37.4
2018-12-05T09:37:03.668Z,37.2
2018-12-05T09:37:54.215Z,36.9
2018-12-05T09:38:43.679Z,36.6
2018-12-05T09:39:34.017Z,36.4
2018-12-05T09:40:23.505Z,36.1
2018-12-05T09:41:13.310Z,35.9
2018-12-05T09:42:03.654Z,35.6
2018-12-05T09:42:53.969Z,35.4
2018-12-05T09:43:44.342Z,35.2
2018-12-05T09:44:34.409Z,34.9
2018-12-05T09:45:23.606Z,34.8
2018-12-05T09:46:14.237Z,34.6
2018-12-05T09:47:03.997Z,34.3
2018-12-05T09:47:53.469Z,34.1
2018-12-05T09:48:43.827Z,33.9
2018-12-05T09:49:34.279Z,33.8
2018-12-05T09:50:24.808Z,33.6
2018-12-05T09:51:14.824Z,33.4
2018-12-05T09:52:04.903Z,33.3
2018-12-05T09:52:55.569Z,33.1
2018-12-05T09:53:44.571Z,32.9
2018-12-05T09:54:34.834Z,32.7
2018-12-05T09:55:25.103Z,32.6
2018-12-05T09:56:13.793Z,32.4
2018-12-05T09:57:04.688Z,32.3
2018-12-05T09:57:54.738Z,32.1
2018-12-05T09:58:44.312Z,31.9
2018-12-05T09:59:34.820Z,31.8
2018-12-05T10:00:25.016Z,31.7
2018-12-05T10:01:14.984Z,31.5
2018-12-05T10:02:05.327Z,31.4
2018-12-05T10:02:55.386Z,31.3
2018-12-05T10:03:44.575Z,31.1
2018-12-05T10:04:35.480Z,31
2018-12-05T10:05:25.813Z,30.9
2018-12-05T10:06:15.045Z,30.8
2018-12-05T10:07:05.385Z,30.6
2018-12-05T10:07:55.947Z,30.5
2018-12-05T10:08:45.485Z,30.4
2018-12-05T10:09:35.820Z,30.3
2018-12-05T10:10:25.417Z,30.2
2018-12-05T10:11:15.131Z,30.1
2018-12-05T10:12:05.549Z,29.9
2018-12-05T10:12:55.672Z,29.9
2018-12-05T10:13:45.925Z,29.8
2018-12-05T10:14:35.390Z,29.7
2018-12-05T10:15:25.479Z,29.6
2018-12-05T10:16:15.535Z,29.4
2018-12-05T10:17:05.594Z,29.4
2018-12-05T10:17:55.943Z,29.3
2018-12-05T10:18:46.219Z,29.2
2018-12-05T10:19:36.777Z,29.1
2018-12-05T10:20:25.179Z,29
2018-12-05T10:21:16.644Z,28.9
2018-12-05T10:22:06.204Z,28.8
2018-12-05T10:22:56.549Z,28.8
2018-12-05T10:23:46.522Z,28.7
2018-12-05T10:24:36.862Z,28.6
2018-12-05T10:25:26.361Z,28.5
2018-12-05T10:26:16.521Z,28.4
2018-12-05T10:27:07.029Z,28.4
2018-12-05T10:27:56.528Z,28.3
2018-12-05T10:28:47.671Z,28.3
2018-12-05T10:29:36.988Z,28.2
2018-12-05T10:30:26.951Z,28.1
2018-12-05T10:31:17.353Z,28
2018-12-05T10:32:09.028Z,28
2018-12-05T10:32:57.148Z,27.9
2018-12-05T10:33:47.208Z,27.9
2018-12-05T10:34:37.330Z,27.8
2018-12-05T10:35:27.555Z,27.7
2018-12-05T10:36:17.433Z,27.7
2018-12-05T10:37:07.440Z,27.6
2018-12-05T10:37:58.998Z,27.6
2018-12-05T10:38:47.591Z,27.5
2018-12-05T10:39:37.936Z,27.4
2018-12-05T10:40:27.900Z,27.4
2018-12-05T10:41:17.573Z,27.3
2018-12-05T10:42:07.230Z,27.3
2018-12-05T10:42:57.615Z,27.3
2018-12-05T10:43:48.141Z,27.2
2018-12-05T10:44:38.300Z,27.1
2018-12-05T10:45:28.615Z,27.1
2018-12-05T10:46:18.061Z,27
2018-12-05T10:47:08.122Z,27
2018-12-05T10:47:58.185Z,26.9
2018-12-05T10:48:48.319Z,26.9
2018-12-05T10:49:38.584Z,26.8
2018-12-05T10:50:28.417Z,26.8
2018-12-05T10:51:19.012Z,26.8
2018-12-05T10:52:09.107Z,26.7
2018-12-05T10:52:58.526Z,26.7
2018-12-05T10:53:48.569Z,26.6
2018-12-05T10:54:39.309Z,26.6
2018-12-05T10:55:29.063Z,26.6
2018-12-05T10:56:18.499Z,26.6
2018-12-05T10:57:09.073Z,26.4
2018-12-05T10:57:59.211Z,26.4
2018-12-05T10:58:48.933Z,26.4
2018-12-05T10:59:38.738Z,26.4
2018-12-05T11:00:29.341Z,26.3
2018-12-05T11:01:18.535Z,26.3
2018-12-05T11:02:09.414Z,26.3
2018-12-05T11:03:00.018Z,26.2
2018-12-05T11:03:49.829Z,26.2
2018-12-05T11:04:39.900Z,26.1
2018-12-05T11:05:29.108Z,26.1
2018-12-05T11:06:19.694Z,26.1
2018-12-05T11:07:09.222Z,26.1
2018-12-05T11:07:59.820Z,26.1
2018-12-05T11:08:49.625Z,26
2018-12-05T11:09:40.023Z,25.9
2018-12-05T11:10:29.435Z,25.9
2018-12-05T11:11:19.547Z,25.9
2018-12-05T11:12:09.560Z,25.9
2018-12-05T11:12:59.895Z,25.8
2018-12-05T11:13:50.559Z,25.8
2018-12-05T11:14:40.279Z,25.8
2018-12-05T11:15:30.632Z,25.8
2018-12-05T11:16:20.639Z,25.8
2018-12-05T11:17:10.733Z,25.7
2018-12-05T11:18:00.809Z,25.7
2018-12-05T11:18:50.292Z,25.6
2018-12-05T11:19:40.121Z,25.6
2018-12-05T11:20:30.490Z,25.6
2018-12-05T11:21:21.009Z,25.6
2018-12-05T11:22:11.144Z,25.6
2018-12-05T11:23:01.137Z,25.5
2018-12-05T11:23:52.600Z,25.5
2018-12-05T11:24:40.961Z,25.4
2018-12-05T11:25:30.002Z,25.4
2018-12-05T11:26:20.606Z,25.4
2018-12-05T11:27:10.684Z,25.4
2018-12-05T11:28:00.685Z,25.4
2018-12-05T11:28:50.501Z,25.4
2018-12-05T11:29:40.271Z,25.3
2018-12-05T11:30:30.961Z,25.3
2018-12-05T11:31:20.663Z,25.3
2018-12-05T11:32:10.946Z,25.3
2018-12-05T11:33:01.023Z,25.3
2018-12-05T11:33:51.606Z,25.3
2018-12-05T11:34:40.264Z,25.2
2018-12-05T11:35:31.394Z,25.2
2018-12-05T11:36:21.859Z,25.1
2018-12-05T11:37:12.104Z,25.1
2018-12-05T11:38:02.157Z,25.1
2018-12-05T11:38:52.217Z,25.1
2018-12-05T11:39:41.472Z,25.1
2018-12-05T11:40:31.784Z,25.1
2018-12-05T11:41:21.820Z,25
2018-12-05T11:42:11.994Z,25
2018-12-05T11:43:01.799Z,25
2018-12-05T11:43:52.558Z,25
2018-12-05T11:44:42.340Z,24.9
2018-12-05T11:45:32.396Z,24.9
2018-12-05T11:46:21.902Z,24.9
2018-12-05T11:47:11.839Z,24.9
2018-12-05T11:48:02.264Z,24.9
2018-12-05T11:48:52.074Z,24.9
2018-12-05T11:49:42.226Z,24.8
2018-12-05T11:50:31.629Z,24.8
2018-12-05T11:51:21.644Z,24.8
2018-12-05T11:52:12.442Z,24.8
2018-12-05T11:53:02.229Z,24.8
2018-12-05T11:53:53.012Z,24.8
2018-12-05T11:54:42.569Z,24.8
2018-12-05T11:55:33.026Z,24.7
2018-12-05T11:56:22.951Z,24.7
2018-12-05T11:57:13.203Z,24.7
2018-12-05T11:58:03.511Z,24.7
2018-12-05T11:58:53.829Z,24.6
2018-12-05T11:59:43.109Z,24.6
2018-12-05T12:00:33.681Z,24.6
2018-12-05T12:01:23.486Z,24.6
2018-12-05T12:02:13.309Z,24.6
2018-12-05T12:03:03.278Z,24.6
2018-12-05T12:03:53.461Z,24.6
2018-12-05T12:04:43.448Z,24.5
2018-12-05T12:05:33.834Z,24.5
2018-12-05T12:06:23.901Z,24.5
2018-12-05T12:07:13.881Z,24.4
2018-12-05T12:08:03.985Z,24.4
2018-12-05T12:08:54.383Z,24.4
2018-12-05T12:09:44.335Z,24.4
2018-12-05T12:10:33.621Z,24.4
2018-12-05T12:11:25.386Z,24.4